Wednesday, February 10, 2016
10:56 UTC
  |  Log In   |  Register Free
Airport Search:

Oroville Municipal Airport
(KOVE)

Oroville Municipal Airport Diagram
No Airport Diagram Available

FAA data valid effective Dec 10 2015 - Feb 4 2016 (unless otherwise noted).

 
 
 
 
 
 
 
 
 
 
 
 
 
 
Current Aviation Weather for KOVE

Weather Summary


The most recent METAR observation for OVE was updated at: 12:53 UTC
METAR for KOVE is not available. Closest METAR is for KCIC
KOVE  (most recent observation was updatred at 10:09 UTC)
100953Z AUTO 30003KT 10SM CLR 12/06 A3023 RMK AO2 SLP238 T01170061

KCIC  (21.5 nm SE)   (most recent observation was updated at 10:10 UTC)
101035Z AUTO 00000KT 10SM CLR 10/06 A3022 RMK AO1

KBAB  (22.8 nm NW)   (most recent observation was updated at 10:09 UTC)
100958Z AUTO 34002KT 10SM CLR 09/07 A3020 RMK AO2 SLP230 T00920065 $

TAF for KOVE is not available.
KBAB  (22.8 nm NW)   (most recent observation was updatred at 10:03 UTC)
100302Z 1003/1109 VRB06KT 9999 FEW250 QNH3014INS TX23/1023Z TN09/1014Z


GlobalAir.com is loading additional information.
 Current Weather at OVE
50.0 F° (10.0 C°)

East winds at 5.8 mph
Pressure:
30.22 in
Humidity:
80%
Wind:
East at 5.8 mph
Dew Point:
44.1 F° (6.7 C°)
Visibility:
10.00 mi
OVE NOAA Radar




Find All Airport Services Find A Hotel Find A Rental Car Find A Golf Course Find A Restaurant $100 Hamburger



Airport Weather Forecast for KOVE

Translated METAR for KOVE (0953 UTC)
METAR:
KOVE 100953Z AUTO 30003KT 10SM CLR 12/06 A3023 RMK AO2 SLP238 T01170061
Conditions at:
KOVE (Oroville Muni, CA) observed 0953 UTC 10 February 2016
Temperature:
12°C (53.6°F)
Dewpoint:
6°C (42.8°F) [RH = 66.7]
Pressure:
30.23 inches Hg (1023.7 mb)
pressure at sea level is 238 in Hg
Winds:
from the WNW (300 degrees) at 3.5 mph (3 knots: 1.5 m/s)
Visibility:
10 mile(s)
Ceiling:
at least 12,000 feet AGL
Clouds:
Clear below 12,000 feet AGL
Remarks:
site is un-manned
site is automated and HAS a precipitation sensor

Translated TAF for KBAB (Beale Afb, CA) (0302 UTC)
TAF text:
KBAB 100302Z 1003/1109 VRB06KT 9999 FEW250 QNH3014INS TX23/1023Z TN09/1014Z
Forecast period:
Wednesday Feb 10 2016 03:00 UTC - Thursday Feb 11 2016 09:00 UTC
Forecast type:
FROM: standard forecast or significant change
Winds:
variable wind direction at 6.9 mph (6 knots: 3.1 m/s)
Visibility:
Ceiling:
at least 12,000 feet AGL
Clouds:
Few Clouds at 25,000 feet AGL
Weather:
no significant weather observed at this time
FBO's on the Field
FBO Company Facility Photos Services Transportation Aviation Fuel Prices: Prices include tax
Catering Weather Repair Courtesy Rental Type 100LL JetA JetA+ MOGAS 8087
 
Table Mountain Aviation

This FBO has not yet been rated
FS:Epic
Last Updated: Jan-27
Login to update fuel prices
SS:
Contact Table Mountain AviationMore FBO Information
 
Add another FBO Facility Photos Catering Weather Repair Courtesy Rental Type 100LL JetA JetA+ MOGAS 8087
Services Transportation Aviation Fuel Prices: Prices include tax


model-print
model-print
model-print
model-print